sensor_id;sensor_type;location;lat;lon;timestamp;pressure;altitude;pressure_sealevel;temperature;humidity
52935;BME280;38802;50.198;19.796;2023-03-25T00:01:12;95126.59;;;10.95;74.92
52935;BME280;38802;50.198;19.796;2023-03-25T00:04:00;95130.80;;;10.90;75.12
52935;BME280;38802;50.198;19.796;2023-03-25T00:07:27;95133.40;;;10.88;75.36
52935;BME280;38802;50.198;19.796;2023-03-25T00:10:08;95133.02;;;10.85;75.24
52935;BME280;38802;50.198;19.796;2023-03-25T00:12:36;95130.19;;;10.86;75.37
52935;BME280;38802;50.198;19.796;2023-03-25T00:15:41;95126.62;;;10.87;75.57
52935;BME280;38802;50.198;19.796;2023-03-25T00:18:20;95122.38;;;10.87;75.77
52935;BME280;38802;50.198;19.796;2023-03-25T00:28:32;95113.41;;;10.85;76.09
52935;BME280;38802;50.198;19.796;2023-03-25T00:45:16;95090.96;;;11.61;76.03
52935;BME280;38802;50.198;19.796;2023-03-25T00:59:30;95094.35;;;12.02;74.57
52935;BME280;38802;50.198;19.796;2023-03-25T01:02:32;95099.06;;;11.80;74.71
52935;BME280;38802;50.198;19.796;2023-03-25T01:05:18;95103.48;;;11.56;74.94
52935;BME280;38802;50.198;19.796;2023-03-25T01:07:59;95107.95;;;11.41;74.86
52935;BME280;38802;50.198;19.796;2023-03-25T01:10:29;95101.98;;;11.32;74.99
52935;BME280;38802;50.198;19.796;2023-03-25T01:16:41;95104.19;;;11.24;75.63
52935;BME280;38802;50.198;19.796;2023-03-25T01:19:33;95098.27;;;11.09;75.75
52935;BME280;38802;50.198;19.796;2023-03-25T01:22:41;95093.70;;;11.02;76.12
52935;BME280;38802;50.198;19.796;2023-03-25T01:25:10;95097.45;;;10.91;76.16
52935;BME280;38802;50.198;19.796;2023-03-25T01:28:04;95087.87;;;10.87;76.62
52935;BME280;38802;50.198;19.796;2023-03-25T01:30:35;95088.95;;;10.83;77.08
52935;BME280;38802;50.198;19.796;2023-03-25T01:33:38;95087.16;;;10.73;77.05
52935;BME280;38802;50.198;19.796;2023-03-25T01:36:12;95084.58;;;10.69;77.35
52935;BME280;38802;50.198;19.796;2023-03-25T01:38:41;95082.83;;;10.64;77.58
52935;BME280;38802;50.198;19.796;2023-03-25T01:41:32;95077.17;;;10.60;77.81
52935;BME280;38802;50.198;19.796;2023-03-25T01:52:24;95075.02;;;10.50;78.31
52935;BME280;38802;50.198;19.796;2023-03-25T01:55:06;95074.60;;;10.49;78.48
52935;BME280;38802;50.198;19.796;2023-03-25T01:57:43;95077.71;;;10.48;78.86
52935;BME280;38802;50.198;19.796;2023-03-25T02:03:53;95076.42;;;10.49;79.29
52935;BME280;38802;50.198;19.796;2023-03-25T02:10:49;95073.13;;;10.47;79.77
52935;BME280;38802;50.198;19.796;2023-03-25T02:34:11;95065.37;;;10.89;80.55
52935;BME280;38802;50.198;19.796;2023-03-25T02:42:14;95076.75;;;10.56;79.62
52935;BME280;38802;50.198;19.796;2023-03-25T02:45:01;95075.64;;;10.48;79.58
52935;BME280;38802;50.198;19.796;2023-03-25T02:57:44;95102.30;;;10.27;78.54
52935;BME280;38802;50.198;19.796;2023-03-25T03:05:34;95080.36;;;10.13;78.12
52935;BME280;38802;50.198;19.796;2023-03-25T03:11:52;95079.39;;;10.01;77.89
52935;BME280;38802;50.198;19.796;2023-03-25T03:27:14;95093.51;;;9.68;76.71
52935;BME280;38802;50.198;19.796;2023-03-25T03:30:24;95085.21;;;9.64;76.61
52935;BME280;38802;50.198;19.796;2023-03-25T03:35:59;95098.80;;;9.55;76.36
52935;BME280;38802;50.198;19.796;2023-03-25T03:38:37;95104.41;;;9.52;76.15
52935;BME280;38802;50.198;19.796;2023-03-25T03:45:02;95112.48;;;9.44;75.78
52935;BME280;38802;50.198;19.796;2023-03-25T03:47:41;95117.57;;;9.41;75.72
52935;BME280;38802;50.198;19.796;2023-03-25T03:52:20;95119.11;;;9.35;75.66
52935;BME280;38802;50.198;19.796;2023-03-25T03:54:59;95121.45;;;9.34;75.81
52935;BME280;38802;50.198;19.796;2023-03-25T03:57:50;95129.19;;;9.29;75.97
52935;BME280;38802;50.198;19.796;2023-03-25T04:00:26;95130.74;;;9.25;76.20
52935;BME280;38802;50.198;19.796;2023-03-25T04:03:03;95137.00;;;9.23;76.47
52935;BME280;38802;50.198;19.796;2023-03-25T04:05:34;95136.05;;;9.21;76.73
52935;BME280;38802;50.198;19.796;2023-03-25T04:08:11;95146.76;;;9.14;76.73
52935;BME280;38802;50.198;19.796;2023-03-25T04:11:14;95144.22;;;9.11;77.02
52935;BME280;38802;50.198;19.796;2023-03-25T04:13:46;95147.78;;;9.04;77.46
52935;BME280;38802;50.198;19.796;2023-03-25T04:16:16;95147.11;;;8.95;77.90
52935;BME280;38802;50.198;19.796;2023-03-25T04:18:44;95146.02;;;8.85;78.11
52935;BME280;38802;50.198;19.796;2023-03-25T04:21:14;95146.25;;;8.76;78.90
52935;BME280;38802;50.198;19.796;2023-03-25T04:23:44;95149.11;;;8.62;78.69
52935;BME280;38802;50.198;19.796;2023-03-25T04:26:13;95143.98;;;8.54;78.98
52935;BME280;38802;50.198;19.796;2023-03-25T04:28:42;95141.66;;;8.47;79.05
52935;BME280;38802;50.198;19.796;2023-03-25T04:31:15;95142.16;;;8.43;79.71
52935;BME280;38802;50.198;19.796;2023-03-25T04:33:44;95140.75;;;8.38;79.92
52935;BME280;38802;50.198;19.796;2023-03-25T04:36:17;95143.50;;;8.32;80.13
52935;BME280;38802;50.198;19.796;2023-03-25T04:38:47;95140.06;;;8.28;80.78
52935;BME280;38802;50.198;19.796;2023-03-25T04:41:15;95142.45;;;8.23;80.95
52935;BME280;38802;50.198;19.796;2023-03-25T04:43:44;95146.44;;;8.20;81.05
52935;BME280;38802;50.198;19.796;2023-03-25T04:46:14;95143.55;;;8.18;81.58
52935;BME280;38802;50.198;19.796;2023-03-25T04:48:44;95141.61;;;8.14;81.64
52935;BME280;38802;50.198;19.796;2023-03-25T04:51:13;95140.46;;;8.12;81.58
52935;BME280;38802;50.198;19.796;2023-03-25T04:53:42;95144.55;;;8.11;81.75
52935;BME280;38802;50.198;19.796;2023-03-25T04:56:12;95148.17;;;8.09;82.07
52935;BME280;38802;50.198;19.796;2023-03-25T04:58:44;95147.45;;;8.07;82.05
52935;BME280;38802;50.198;19.796;2023-03-25T05:01:28;95152.08;;;8.08;82.62
52935;BME280;38802;50.198;19.796;2023-03-25T05:04:02;95155.38;;;8.06;82.69
52935;BME280;38802;50.198;19.796;2023-03-25T05:06:36;95158.88;;;8.04;82.94
52935;BME280;38802;50.198;19.796;2023-03-25T05:09:12;95161.48;;;8.02;83.20
52935;BME280;38802;50.198;19.796;2023-03-25T05:11:43;95162.02;;;7.99;83.41
52935;BME280;38802;50.198;19.796;2023-03-25T05:14:15;95163.66;;;7.97;83.22
52935;BME280;38802;50.198;19.796;2023-03-25T05:16:44;95165.77;;;7.96;83.53
52935;BME280;38802;50.198;19.796;2023-03-25T05:24:19;95181.57;;;7.94;83.83
52935;BME280;38802;50.198;19.796;2023-03-25T05:27:06;95182.83;;;7.91;84.10
52935;BME280;38802;50.198;19.796;2023-03-25T05:29:55;95189.69;;;7.90;84.00
52935;BME280;38802;50.198;19.796;2023-03-25T05:32:37;95192.36;;;7.89;83.90
52935;BME280;38802;50.198;19.796;2023-03-25T05:35:09;95190.36;;;7.90;84.17
52935;BME280;38802;50.198;19.796;2023-03-25T05:37:37;95187.38;;;7.89;84.00
52935;BME280;38802;50.198;19.796;2023-03-25T05:40:06;95190.64;;;7.93;83.90
52935;BME280;38802;50.198;19.796;2023-03-25T05:42:42;95191.67;;;7.95;83.74
52935;BME280;38802;50.198;19.796;2023-03-25T05:45:15;95196.70;;;7.97;83.51
52935;BME280;38802;50.198;19.796;2023-03-25T05:47:43;95198.11;;;7.98;83.64
52935;BME280;38802;50.198;19.796;2023-03-25T05:50:13;95201.89;;;8.02;83.81
52935;BME280;38802;50.198;19.796;2023-03-25T05:52:41;95200.40;;;8.04;83.77
52935;BME280;38802;50.198;19.796;2023-03-25T05:55:15;95201.75;;;8.06;83.67
52935;BME280;38802;50.198;19.796;2023-03-25T05:57:46;95207.95;;;8.06;83.62
52935;BME280;38802;50.198;19.796;2023-03-25T06:00:15;95207.88;;;8.07;83.69
52935;BME280;38802;50.198;19.796;2023-03-25T06:02:46;95206.73;;;8.06;83.90
52935;BME280;38802;50.198;19.796;2023-03-25T06:05:15;95206.59;;;8.06;84.06
52935;BME280;38802;50.198;19.796;2023-03-25T06:11:25;95207.27;;;8.04;83.98
52935;BME280;38802;50.198;19.796;2023-03-25T06:13:53;95199.52;;;8.06;84.07
52935;BME280;38802;50.198;19.796;2023-03-25T06:16:24;95195.72;;;8.06;83.98
52935;BME280;38802;50.198;19.796;2023-03-25T06:19:16;95197.80;;;8.09;84.06
52935;BME280;38802;50.198;19.796;2023-03-25T06:21:45;95188.94;;;8.11;84.06
52935;BME280;38802;50.198;19.796;2023-03-25T06:24:18;95203.80;;;8.16;84.09
52935;BME280;38802;50.198;19.796;2023-03-25T06:26:46;95219.15;;;8.20;83.91
52935;BME280;38802;50.198;19.796;2023-03-25T06:29:14;95234.23;;;8.26;83.91
52935;BME280;38802;50.198;19.796;2023-03-25T06:31:42;95236.63;;;8.32;83.78
52935;BME280;38802;50.198;19.796;2023-03-25T06:34:10;95237.21;;;8.35;83.79
52935;BME280;38802;50.198;19.796;2023-03-25T06:36:38;95237.81;;;8.36;83.74
52935;BME280;38802;50.198;19.796;2023-03-25T06:39:06;95233.99;;;8.38;83.76
52935;BME280;38802;50.198;19.796;2023-03-25T06:41:35;95227.77;;;8.40;83.75
52935;BME280;38802;50.198;19.796;2023-03-25T06:44:16;95220.98;;;8.43;83.73
52935;BME280;38802;50.198;19.796;2023-03-25T06:47:10;95214.20;;;8.45;83.73
52935;BME280;38802;50.198;19.796;2023-03-25T06:55:02;95226.41;;;8.54;83.75
52935;BME280;38802;50.198;19.796;2023-03-25T06:57:31;95229.41;;;8.57;83.69
52935;BME280;38802;50.198;19.796;2023-03-25T06:59:59;95235.45;;;8.61;83.73
52935;BME280;38802;50.198;19.796;2023-03-25T07:02:27;95237.50;;;8.67;83.75
52935;BME280;38802;50.198;19.796;2023-03-25T07:05:35;95244.73;;;8.71;83.66
52935;BME280;38802;50.198;19.796;2023-03-25T07:08:03;95247.37;;;8.76;83.59
52935;BME280;38802;50.198;19.796;2023-03-25T07:10:31;95250.92;;;8.79;83.61
52935;BME280;38802;50.198;19.796;2023-03-25T07:13:18;95241.91;;;8.83;83.48
52935;BME280;38802;50.198;19.796;2023-03-25T07:15:59;95238.17;;;8.88;83.49
52935;BME280;38802;50.198;19.796;2023-03-25T07:18:28;95239.29;;;8.93;83.41
52935;BME280;38802;50.198;19.796;2023-03-25T07:20:56;95230.26;;;8.97;83.31
52935;BME280;38802;50.198;19.796;2023-03-25T07:23:24;95223.38;;;9.00;83.26
52935;BME280;38802;50.198;19.796;2023-03-25T07:25:52;95226.05;;;9.03;83.34
52935;BME280;38802;50.198;19.796;2023-03-25T07:28:24;95230.39;;;9.06;83.29
52935;BME280;38802;50.198;19.796;2023-03-25T07:30:52;95232.71;;;9.09;83.06
52935;BME280;38802;50.198;19.796;2023-03-25T07:33:24;95231.65;;;9.14;83.01
52935;BME280;38802;50.198;19.796;2023-03-25T07:35:53;95233.98;;;9.19;82.91
52935;BME280;38802;50.198;19.796;2023-03-25T07:38:23;95226.50;;;9.25;82.81
52935;BME280;38802;50.198;19.796;2023-03-25T07:40:56;95226.34;;;9.30;82.29
52935;BME280;38802;50.198;19.796;2023-03-25T07:44:01;95217.31;;;9.33;82.02
52935;BME280;38802;50.198;19.796;2023-03-25T07:46:31;95211.89;;;9.41;82.05
52935;BME280;38802;50.198;19.796;2023-03-25T07:49:06;95210.34;;;9.51;81.86
52935;BME280;38802;50.198;19.796;2023-03-25T07:55:36;95206.67;;;9.69;81.42
52935;BME280;38802;50.198;19.796;2023-03-25T07:58:04;95205.73;;;9.78;80.88
52935;BME280;38802;50.198;19.796;2023-03-25T08:03:44;95195.64;;;9.90;80.02
52935;BME280;38802;50.198;19.796;2023-03-25T08:18:02;95197.60;;;10.36;78.89
52935;BME280;38802;50.198;19.796;2023-03-25T08:20:30;95201.55;;;10.49;78.80
52935;BME280;38802;50.198;19.796;2023-03-25T08:23:01;95202.77;;;10.66;78.31
52935;BME280;38802;50.198;19.796;2023-03-25T08:25:30;95199.15;;;10.79;78.16
52935;BME280;38802;50.198;19.796;2023-03-25T08:28:01;95195.53;;;10.89;77.51
52935;BME280;38802;50.198;19.796;2023-03-25T08:30:35;95195.81;;;11.05;77.82
52935;BME280;38802;50.198;19.796;2023-03-25T08:33:05;95193.34;;;11.28;77.18
52935;BME280;38802;50.198;19.796;2023-03-25T08:35:39;95192.66;;;11.50;76.95
52935;BME280;38802;50.198;19.796;2023-03-25T08:38:25;95190.96;;;11.71;76.41
52935;BME280;38802;50.198;19.796;2023-03-25T08:41:02;95191.02;;;11.85;76.39
52935;BME280;38802;50.198;19.796;2023-03-25T08:43:30;95192.48;;;11.99;75.13
52935;BME280;38802;50.198;19.796;2023-03-25T08:45:59;95195.96;;;12.05;74.27
52935;BME280;38802;50.198;19.796;2023-03-25T08:48:27;95191.73;;;12.06;73.58
52935;BME280;38802;50.198;19.796;2023-03-25T08:50:55;95190.50;;;11.98;74.09
52935;BME280;38802;50.198;19.796;2023-03-25T08:53:24;95186.03;;;11.97;73.97
52935;BME280;38802;50.198;19.796;2023-03-25T08:55:54;95181.80;;;12.06;74.11
52935;BME280;38802;50.198;19.796;2023-03-25T08:58:23;95179.55;;;12.17;73.89
52935;BME280;38802;50.198;19.796;2023-03-25T09:00:54;95182.05;;;12.25;73.84
52935;BME280;38802;50.198;19.796;2023-03-25T09:03:23;95175.91;;;12.31;72.96
52935;BME280;38802;50.198;19.796;2023-03-25T09:05:53;95180.21;;;12.33;72.94
52935;BME280;38802;50.198;19.796;2023-03-25T09:08:22;95180.13;;;12.43;72.50
52935;BME280;38802;50.198;19.796;2023-03-25T09:10:50;95180.48;;;12.49;72.59
52935;BME280;38802;50.198;19.796;2023-03-25T09:13:18;95179.30;;;12.54;72.18
52935;BME280;38802;50.198;19.796;2023-03-25T09:15:46;95176.39;;;12.55;71.09
52935;BME280;38802;50.198;19.796;2023-03-25T09:18:14;95173.59;;;12.57;71.66
52935;BME280;38802;50.198;19.796;2023-03-25T09:20:42;95174.78;;;12.69;71.84
52935;BME280;38802;50.198;19.796;2023-03-25T09:23:17;95178.25;;;12.80;71.22
52935;BME280;38802;50.198;19.796;2023-03-25T09:25:47;95168.67;;;12.86;70.93
52935;BME280;38802;50.198;19.796;2023-03-25T09:28:15;95164.44;;;12.95;69.99
52935;BME280;38802;50.198;19.796;2023-03-25T09:30:43;95160.69;;;13.02;69.80
52935;BME280;38802;50.198;19.796;2023-03-25T09:33:11;95166.95;;;13.07;69.66
52935;BME280;38802;50.198;19.796;2023-03-25T09:35:41;95162.80;;;13.07;68.99
52935;BME280;38802;50.198;19.796;2023-03-25T09:38:09;95161.47;;;13.05;68.22
52935;BME280;38802;50.198;19.796;2023-03-25T09:40:47;95156.41;;;13.02;68.18
52935;BME280;38802;50.198;19.796;2023-03-25T09:43:52;95153.11;;;13.00;68.22
52935;BME280;38802;50.198;19.796;2023-03-25T09:46:25;95148.38;;;12.98;66.84
52935;BME280;38802;50.198;19.796;2023-03-25T09:48:55;95148.29;;;12.96;66.56
52935;BME280;38802;50.198;19.796;2023-03-25T09:51:29;95144.25;;;13.01;65.72
52935;BME280;38802;50.198;19.796;2023-03-25T09:57:47;95142.19;;;13.12;65.48
52935;BME280;38802;50.198;19.796;2023-03-25T10:11:51;95137.61;;;13.17;63.58
52935;BME280;38802;50.198;19.796;2023-03-25T10:14:36;95135.92;;;13.02;63.20
52935;BME280;38802;50.198;19.796;2023-03-25T10:17:31;95138.70;;;12.94;62.84
52935;BME280;38802;50.198;19.796;2023-03-25T10:20:15;95134.92;;;12.95;63.23
52935;BME280;38802;50.198;19.796;2023-03-25T10:22:58;95128.02;;;13.03;63.22
52935;BME280;38802;50.198;19.796;2023-03-25T10:25:32;95127.11;;;13.16;63.64
52935;BME280;38802;50.198;19.796;2023-03-25T10:28:04;95122.73;;;13.35;63.41
52935;BME280;38802;50.198;19.796;2023-03-25T10:30:42;95120.18;;;13.48;63.32
52935;BME280;38802;50.198;19.796;2023-03-25T10:33:22;95119.99;;;13.58;63.61
52935;BME280;38802;50.198;19.796;2023-03-25T10:35:57;95110.68;;;13.68;63.33
52935;BME280;38802;50.198;19.796;2023-03-25T10:38:29;95102.08;;;13.82;62.48
52935;BME280;38802;50.198;19.796;2023-03-25T10:41:10;95104.41;;;13.90;61.18
52935;BME280;38802;50.198;19.796;2023-03-25T10:43:40;95102.66;;;13.77;60.58
52935;BME280;38802;50.198;19.796;2023-03-25T10:46:29;95105.22;;;13.67;60.72
52935;BME280;38802;50.198;19.796;2023-03-25T10:48:58;95098.52;;;13.54;60.46
52935;BME280;38802;50.198;19.796;2023-03-25T10:51:31;95092.48;;;13.47;60.80
52935;BME280;38802;50.198;19.796;2023-03-25T10:54:00;95080.38;;;13.52;60.25
52935;BME280;38802;50.198;19.796;2023-03-25T10:56:49;95081.19;;;13.59;59.84
52935;BME280;38802;50.198;19.796;2023-03-25T10:59:29;95066.47;;;13.67;60.53
52935;BME280;38802;50.198;19.796;2023-03-25T11:02:14;95068.45;;;13.78;59.79
52935;BME280;38802;50.198;19.796;2023-03-25T11:04:47;95061.70;;;13.84;59.60
52935;BME280;38802;50.198;19.796;2023-03-25T11:07:24;95059.04;;;13.94;58.50
52935;BME280;38802;50.198;19.796;2023-03-25T11:10:07;95055.52;;;14.02;58.41
52935;BME280;38802;50.198;19.796;2023-03-25T11:12:35;95052.05;;;14.09;58.43
52935;BME280;38802;50.198;19.796;2023-03-25T11:15:19;95051.63;;;14.05;57.42
52935;BME280;38802;50.198;19.796;2023-03-25T11:18:04;95049.70;;;13.92;56.54
52935;BME280;38802;50.198;19.796;2023-03-25T11:20:44;95043.10;;;13.82;56.09
52935;BME280;38802;50.198;19.796;2023-03-25T11:23:34;95043.67;;;13.85;55.58
52935;BME280;38802;50.198;19.796;2023-03-25T11:26:27;95041.08;;;13.77;55.52
52935;BME280;38802;50.198;19.796;2023-03-25T11:29:08;95045.04;;;13.67;56.13
52935;BME280;38802;50.198;19.796;2023-03-25T11:31:41;95047.55;;;13.67;55.69
52935;BME280;38802;50.198;19.796;2023-03-25T11:36:52;95046.29;;;13.51;55.55
52935;BME280;38802;50.198;19.796;2023-03-25T11:41:50;95084.09;;;13.00;57.92
52935;BME280;38802;50.198;19.796;2023-03-25T11:44:27;95094.43;;;12.40;60.58
52935;BME280;38802;50.198;19.796;2023-03-25T11:47:01;95104.27;;;11.65;62.91
52935;BME280;38802;50.198;19.796;2023-03-25T11:49:33;95109.35;;;11.18;64.62
52935;BME280;38802;50.198;19.796;2023-03-25T11:52:09;95107.42;;;10.77;66.90
52935;BME280;38802;50.198;19.796;2023-03-25T11:54:41;95105.32;;;10.38;67.91
52935;BME280;38802;50.198;19.796;2023-03-25T11:57:13;95099.45;;;10.14;68.16
52935;BME280;38802;50.198;19.796;2023-03-25T11:59:45;95101.01;;;9.96;68.52
52935;BME280;38802;50.198;19.796;2023-03-25T12:02:28;95097.23;;;9.91;68.80
52935;BME280;38802;50.198;19.796;2023-03-25T12:05:03;95098.70;;;9.88;69.48
52935;BME280;38802;50.198;19.796;2023-03-25T12:07:46;95099.73;;;9.90;70.58
52935;BME280;38802;50.198;19.796;2023-03-25T12:10:37;95088.71;;;9.91;71.12
52935;BME280;38802;50.198;19.796;2023-03-25T12:18:53;95078.23;;;10.32;71.87
52935;BME280;38802;50.198;19.796;2023-03-25T12:24:20;95070.93;;;10.77;72.24
52935;BME280;38802;50.198;19.796;2023-03-25T12:27:04;95063.70;;;10.94;72.07
52935;BME280;38802;50.198;19.796;2023-03-25T12:30:06;95058.64;;;11.12;71.98
52935;BME280;38802;50.198;19.796;2023-03-25T12:32:46;95057.02;;;11.24;71.78
52935;BME280;38802;50.198;19.796;2023-03-25T12:35:44;95054.23;;;11.28;71.50
52935;BME280;38802;50.198;19.796;2023-03-25T12:41:06;95056.23;;;11.44;70.32
52935;BME280;38802;50.198;19.796;2023-03-25T13:08:36;95064.33;;;11.51;69.41
52935;BME280;38802;50.198;19.796;2023-03-25T13:11:10;95066.34;;;11.70;69.22
52935;BME280;38802;50.198;19.796;2023-03-25T13:13:43;95060.70;;;11.83;69.30
52935;BME280;38802;50.198;19.796;2023-03-25T13:16:18;95051.92;;;11.98;69.03
52935;BME280;38802;50.198;19.796;2023-03-25T13:18:51;95046.45;;;12.15;68.86
52935;BME280;38802;50.198;19.796;2023-03-25T13:21:27;95045.11;;;12.29;68.88
52935;BME280;38802;50.198;19.796;2023-03-25T13:24:00;95044.15;;;12.46;68.38
52935;BME280;38802;50.198;19.796;2023-03-25T13:26:33;95042.58;;;12.57;67.68
52935;BME280;38802;50.198;19.796;2023-03-25T13:29:13;95043.73;;;12.60;67.26
52935;BME280;38802;50.198;19.796;2023-03-25T13:31:45;95046.81;;;12.51;66.89
52935;BME280;38802;50.198;19.796;2023-03-25T13:34:32;95049.75;;;12.42;65.99
52935;BME280;38802;50.198;19.796;2023-03-25T13:37:22;95050.48;;;12.37;66.06
52935;BME280;38802;50.198;19.796;2023-03-25T13:40:21;95049.96;;;12.34;65.53
52935;BME280;38802;50.198;19.796;2023-03-25T13:43:04;95048.02;;;12.38;65.24
52935;BME280;38802;50.198;19.796;2023-03-25T13:45:46;95044.33;;;12.41;64.10
52935;BME280;38802;50.198;19.796;2023-03-25T13:48:21;95049.39;;;12.36;63.13
52935;BME280;38802;50.198;19.796;2023-03-25T13:50:55;95049.32;;;12.17;62.89
52935;BME280;38802;50.198;19.796;2023-03-25T13:59:32;95068.10;;;11.45;63.89
52935;BME280;38802;50.198;19.796;2023-03-25T14:13:26;95059.27;;;10.54;66.93
52935;BME280;38802;50.198;19.796;2023-03-25T14:16:07;95054.53;;;10.52;67.74
52935;BME280;38802;50.198;19.796;2023-03-25T14:18:45;95050.48;;;10.50;67.85
52935;BME280;38802;50.198;19.796;2023-03-25T14:21:31;95049.71;;;10.54;68.21
52935;BME280;38802;50.198;19.796;2023-03-25T14:24:06;95048.73;;;10.53;68.00
52935;BME280;38802;50.198;19.796;2023-03-25T14:26:43;95041.62;;;10.56;68.21
52935;BME280;38802;50.198;19.796;2023-03-25T14:34:45;95039.52;;;10.58;68.72
52935;BME280;38802;50.198;19.796;2023-03-25T14:39:45;95045.16;;;10.61;68.23
52935;BME280;38802;50.198;19.796;2023-03-25T14:48:31;95043.70;;;10.63;68.10
52935;BME280;38802;50.198;19.796;2023-03-25T14:53:37;95040.50;;;10.69;68.35
52935;BME280;38802;50.198;19.796;2023-03-25T14:56:06;95038.86;;;10.85;68.77
52935;BME280;38802;50.198;19.796;2023-03-25T14:58:41;95039.10;;;11.05;68.53
52935;BME280;38802;50.198;19.796;2023-03-25T15:01:12;95037.02;;;11.21;68.44
52935;BME280;38802;50.198;19.796;2023-03-25T15:03:42;95033.72;;;11.31;68.19
52935;BME280;38802;50.198;19.796;2023-03-25T15:06:16;95035.30;;;11.35;68.03
52935;BME280;38802;50.198;19.796;2023-03-25T15:08:56;95032.69;;;11.38;67.66
52935;BME280;38802;50.198;19.796;2023-03-25T15:11:35;95032.88;;;11.38;67.30
52935;BME280;38802;50.198;19.796;2023-03-25T15:17:45;95033.48;;;11.47;65.37
52935;BME280;38802;50.198;19.796;2023-03-25T15:25:55;95036.44;;;11.28;63.26
52935;BME280;38802;50.198;19.796;2023-03-25T15:28:38;95039.41;;;11.22;62.99
52935;BME280;38802;50.198;19.796;2023-03-25T15:33:56;95040.88;;;11.13;62.83
52935;BME280;38802;50.198;19.796;2023-03-25T15:36:58;95042.33;;;11.05;61.43
52935;BME280;38802;50.198;19.796;2023-03-25T15:39:38;95053.23;;;10.94;61.35
52935;BME280;38802;50.198;19.796;2023-03-25T15:55:36;95055.84;;;10.55;58.99
52935;BME280;38802;50.198;19.796;2023-03-25T15:58:12;95057.50;;;10.49;59.14
52935;BME280;38802;50.198;19.796;2023-03-25T16:00:47;95049.63;;;10.49;58.41
52935;BME280;38802;50.198;19.796;2023-03-25T16:03:23;95050.30;;;10.41;58.06
52935;BME280;38802;50.198;19.796;2023-03-25T16:06:00;95048.84;;;10.31;58.36
52935;BME280;38802;50.198;19.796;2023-03-25T16:08:40;95053.70;;;10.26;58.28
52935;BME280;38802;50.198;19.796;2023-03-25T16:14:09;95054.36;;;10.17;58.77
52935;BME280;38802;50.198;19.796;2023-03-25T16:16:42;95055.95;;;10.12;59.11
52935;BME280;38802;50.198;19.796;2023-03-25T16:19:18;95058.30;;;10.13;59.15
52935;BME280;38802;50.198;19.796;2023-03-25T16:21:49;95057.48;;;10.12;59.26
52935;BME280;38802;50.198;19.796;2023-03-25T16:24:23;95057.48;;;10.07;59.76
52935;BME280;38802;50.198;19.796;2023-03-25T16:26:52;95060.43;;;10.05;59.58
52935;BME280;38802;50.198;19.796;2023-03-25T16:29:23;95062.73;;;9.99;59.65
52935;BME280;38802;50.198;19.796;2023-03-25T16:31:57;95062.90;;;9.96;60.28
52935;BME280;38802;50.198;19.796;2023-03-25T16:34:32;95065.01;;;9.95;60.25
52935;BME280;38802;50.198;19.796;2023-03-25T16:37:01;95068.71;;;9.97;60.28
52935;BME280;38802;50.198;19.796;2023-03-25T16:39:32;95073.89;;;9.95;60.30
52935;BME280;38802;50.198;19.796;2023-03-25T16:42:05;95080.94;;;9.90;60.27
52935;BME280;38802;50.198;19.796;2023-03-25T16:44:34;95084.84;;;9.84;60.35
52935;BME280;38802;50.198;19.796;2023-03-25T16:47:04;95086.52;;;9.77;60.58
52935;BME280;38802;50.198;19.796;2023-03-25T16:49:35;95088.51;;;9.73;60.64
52935;BME280;38802;50.198;19.796;2023-03-25T16:52:10;95095.89;;;9.70;60.65
52935;BME280;38802;50.198;19.796;2023-03-25T16:57:34;95108.11;;;9.53;61.65
52935;BME280;38802;50.198;19.796;2023-03-25T17:00:16;95114.11;;;9.38;62.29
52935;BME280;38802;50.198;19.796;2023-03-25T17:02:46;95115.34;;;9.23;63.23
52935;BME280;38802;50.198;19.796;2023-03-25T17:05:21;95115.67;;;9.12;63.57
52935;BME280;38802;50.198;19.796;2023-03-25T17:07:55;95118.73;;;9.00;63.98
52935;BME280;38802;50.198;19.796;2023-03-25T17:10:27;95116.31;;;8.91;64.47
52935;BME280;38802;50.198;19.796;2023-03-25T17:13:18;95118.61;;;8.81;64.48
52935;BME280;38802;50.198;19.796;2023-03-25T17:15:49;95121.73;;;8.72;64.54
52935;BME280;38802;50.198;19.796;2023-03-25T17:18:29;95120.38;;;8.68;65.14
52935;BME280;38802;50.198;19.796;2023-03-25T17:20:59;95123.71;;;8.63;65.68
52935;BME280;38802;50.198;19.796;2023-03-25T17:23:44;95125.20;;;8.58;65.80
52935;BME280;38802;50.198;19.796;2023-03-25T17:26:16;95140.23;;;8.57;66.22
52935;BME280;38802;50.198;19.796;2023-03-25T17:37:11;95131.70;;;8.17;69.02
52935;BME280;38802;50.198;19.796;2023-03-25T17:39:46;95132.39;;;8.08;68.92
52935;BME280;38802;50.198;19.796;2023-03-25T17:42:22;95131.21;;;8.01;68.73
52935;BME280;38802;50.198;19.796;2023-03-25T17:44:50;95132.88;;;7.97;68.88
52935;BME280;38802;50.198;19.796;2023-03-25T17:47:18;95134.58;;;7.91;68.90
52935;BME280;38802;50.198;19.796;2023-03-25T17:49:46;95135.56;;;7.88;69.01
52935;BME280;38802;50.198;19.796;2023-03-25T17:52:14;95130.46;;;7.85;69.29
52935;BME280;38802;50.198;19.796;2023-03-25T17:54:40;95131.23;;;7.82;69.57
52935;BME280;38802;50.198;19.796;2023-03-25T17:57:11;95131.41;;;7.78;69.37
52935;BME280;38802;50.198;19.796;2023-03-25T17:59:39;95136.30;;;7.75;69.39
52935;BME280;38802;50.198;19.796;2023-03-25T18:02:11;95128.63;;;7.76;69.67
52935;BME280;38802;50.198;19.796;2023-03-25T18:04:38;95128.27;;;7.76;69.49
52935;BME280;38802;50.198;19.796;2023-03-25T18:07:04;95128.95;;;7.73;69.80
52935;BME280;38802;50.198;19.796;2023-03-25T18:09:31;95127.80;;;7.66;69.96
52935;BME280;38802;50.198;19.796;2023-03-25T18:11:58;95135.36;;;7.63;70.18
52935;BME280;38802;50.198;19.796;2023-03-25T18:14:25;95138.33;;;7.56;70.93
52935;BME280;38802;50.198;19.796;2023-03-25T18:16:53;95139.30;;;7.47;71.71
52935;BME280;38802;50.198;19.796;2023-03-25T18:19:23;95139.46;;;7.40;71.84
52935;BME280;38802;50.198;19.796;2023-03-25T18:21:50;95143.13;;;7.37;71.76